Time;durP1;ratioP1;P1;durP2;ratioP2;P2;SDS_P1;SDS_P2;PMS_P1;PMS_P2;Temp;Humidity;BMP_temperature;BMP_pressure;BME280_temperature;BME280_humidity;BME280_pressure;Samples;Min_cycle;Max_cycle;Signal;HPM_P1;HPM_P2
2021/11/14 00:00:13;;;;;;;;;;;22.00;56.70;;;;;;694044;28;858;-82
2021/11/14 00:00:36;;;;;;;;;;;22.00;57.90;;;;;;696018;28;1258;-84
2021/11/14 00:00:59;;;;;;;;;;;22.00;56.70;;;;;;696564;28;995;-85
2021/11/14 00:01:20;;;;;;;;;;;22.00;56.60;;;;;;696385;28;1277;-80
2021/11/14 00:01:41;;;;;;;;;;;22.10;56.50;;;;;;696486;28;882;-80
2021/11/14 00:02:02;;;;;;;;;;;22.00;56.50;;;;;;695344;28;1387;-81
2021/11/14 00:02:23;;;;;;;;;;;22.00;56.50;;;;;;695292;28;1439;-81
2021/11/14 00:02:43;;;;;;;;;;;22.00;56.60;;;;;;690375;28;1237;-79
2021/11/14 00:03:04;;;;;;;;;;;22.00;56.60;;;;;;690874;28;1204;-83
2021/11/14 00:03:25;;;;;;;;;;;22.00;56.30;;;;;;690604;28;1223;-81
2021/11/14 00:03:47;;;;;;;;;;;22.00;56.40;;;;;;690743;28;1395;-82
2021/11/14 00:04:08;;;;;;;;;;;22.00;56.60;;;;;;688633;28;1318;-81
2021/11/14 00:04:29;;;;;;;;;;;22.00;56.70;;;;;;691434;28;1234;-83
2021/11/14 00:04:50;;;;;;;;;;;22.00;56.80;;;;;;693188;28;1055;-84
2021/11/14 00:05:11;;;;;;;;;;;22.00;56.80;;;;;;693807;28;814;-81
2021/11/14 00:05:32;;;;;;;;;;;22.00;56.80;;;;;;694004;28;1950;-82
2021/11/14 00:05:53;;;;;;;;;;;22.00;57.00;;;;;;693975;28;893;-80
2021/11/14 00:06:14;;;;;;;;;;;22.00;57.30;;;;;;693909;28;854;-81
2021/11/14 00:06:35;;;;;;;;;;;22.00;57.30;;;;;;694071;28;854;-82
2021/11/14 00:06:55;;;;;;;;;;;22.00;57.60;;;;;;694124;28;869;-83
2021/11/14 00:07:17;;;;;;;;;;;22.00;57.80;;;;;;693095;28;1373;-81
2021/11/14 00:07:37;;;;;;;;;;;22.00;58.50;;;;;;693958;28;814;-82
2021/11/14 00:07:58;;;;;;;;;;;22.00;58.50;;;;;;693711;28;862;-81
2021/11/14 00:08:19;;;;;;;;;;;22.00;58.60;;;;;;694060;28;909;-85
2021/11/14 00:08:40;;;;;;;;;;;22.00;58.40;;;;;;690916;28;1095;-82
2021/11/14 00:09:01;;;;;;;;;;;22.00;58.70;;;;;;690821;28;862;-84
2021/11/14 00:09:21;;;;;;;;;;;22.00;58.70;;;;;;691026;28;838;-82
2021/11/14 00:09:42;;;;;;;;;;;22.00;58.20;;;;;;691307;28;1381;-86
2021/11/14 00:10:03;;;;;;;;;;;22.00;58.80;;;;;;693613;28;1203;-85
2021/11/14 00:10:24;;;;;;;;;;;22.00;58.40;;;;;;694268;28;1291;-87
2021/11/14 00:10:46;;;;;;;;;;;22.00;59.00;;;;;;696172;28;1384;-85
2021/11/14 00:11:09;;;;;;;;;;;22.00;58.70;;;;;;696509;28;923;-91
2021/11/14 00:11:30;;;;;;;;;;;22.10;59.30;;;;;;692089;28;1345;-83
2021/11/14 00:11:50;;;;;;;;;;;22.00;59.20;;;;;;691153;28;838;-86
2021/11/14 00:12:11;;;;;;;;;;;22.10;58.90;;;;;;690991;28;1273;-89
2021/11/14 00:12:32;;;;;;;;;;;22.00;59.10;;;;;;688271;28;1274;-85
2021/11/14 00:12:54;;;;;;;;;;;22.00;59.30;;;;;;685892;28;1728;-83
2021/11/14 00:13:15;;;;;;;;;;;22.10;59.40;;;;;;688551;28;1036;-88
2021/11/14 00:13:39;;;;;;;;;;;22.10;59.40;;;;;;691119;28;976;-85
2021/11/14 00:14:00;;;;;;;;;;;22.10;59.00;;;;;;688347;28;1358;-91
2021/11/14 00:14:20;;;;;;;;;;;22.00;59.60;;;;;;689225;28;1198;-85
2021/11/14 00:14:41;;;;;;;;;;;22.00;59.40;;;;;;689326;28;1479;-83
2021/11/14 00:15:02;;;;;;;;;;;22.00;59.50;;;;;;691115;28;794;-85
2021/11/14 00:15:23;;;;;;;;;;;22.00;58.80;;;;;;690865;28;1476;-84
2021/11/14 00:15:44;;;;;;;;;;;22.00;60.10;;;;;;689567;28;1449;-83
2021/11/14 00:16:07;;;;;;;;;;;22.00;59.40;;;;;;692680;28;1441;-84
2021/11/14 00:16:27;;;;;;;;;;;22.10;59.00;;;;;;691623;28;1379;-84
2021/11/14 00:16:48;;;;;;;;;;;22.10;59.40;;;;;;693906;28;849;-84
2021/11/14 00:17:09;;;;;;;;;;;22.10;59.80;;;;;;693739;28;806;-84
2021/11/14 00:17:30;;;;;;;;;;;22.10;60.40;;;;;;690253;28;1246;-85
2021/11/14 00:17:51;;;;;;;;;;;22.00;60.70;;;;;;691063;28;827;-84
2021/11/14 00:18:12;;;;;;;;;;;22.10;60.50;;;;;;691321;28;823;-89
2021/11/14 00:18:33;;;;;;;;;;;22.00;60.20;;;;;;693511;28;1385;-88
2021/11/14 00:18:54;;;;;;;;;;;22.10;60.50;;;;;;693745;28;1234;-87
2021/11/14 00:19:15;;;;;;;;;;;22.00;60.90;;;;;;694336;28;1142;-87
2021/11/14 00:19:36;;;;;;;;;;;22.10;60.70;;;;;;696462;28;1088;-88
2021/11/14 00:19:57;;;;;;;;;;;22.10;60.20;;;;;;696443;28;1100;-90
2021/11/14 00:20:17;;;;;;;;;;;22.00;60.80;;;;;;693319;28;1097;-91
2021/11/14 00:20:38;;;;;;;;;;;22.00;60.50;;;;;;690861;28;1309;-87
2021/11/14 00:20:59;;;;;;;;;;;22.00;61.10;;;;;;691437;28;786;-84
2021/11/14 00:21:20;;;;;;;;;;;22.00;60.90;;;;;;693662;28;1236;-91
2021/11/14 00:21:42;;;;;;;;;;;22.10;60.70;;;;;;693840;28;802;-86
2021/11/14 00:22:02;;;;;;;;;;;22.10;60.30;;;;;;690228;28;1542;-86
2021/11/14 00:22:23;;;;;;;;;;;22.00;60.40;;;;;;688354;28;925;-85
2021/11/14 00:22:44;;;;;;;;;;;22.00;59.70;;;;;;688289;28;835;-82
2021/11/14 00:23:05;;;;;;;;;;;22.00;59.70;;;;;;688830;28;886;-85
2021/11/14 00:23:26;;;;;;;;;;;22.00;59.50;;;;;;690993;28;1301;-88
2021/11/14 00:23:49;;;;;;;;;;;22.00;60.50;;;;;;692634;28;1448;-89
2021/11/14 00:24:11;;;;;;;;;;;22.00;60.30;;;;;;693662;28;1143;-82
2021/11/14 00:24:31;;;;;;;;;;;22.00;59.60;;;;;;693833;28;905;-84
2021/11/14 00:24:52;;;;;;;;;;;22.00;59.60;;;;;;693561;28;1214;-82
2021/11/14 00:25:17;;;;;;;;;;;22.00;59.80;;;;;;692818;28;1257;-80
2021/11/14 00:25:38;;;;;;;;;;;22.10;59.50;;;;;;693490;28;1902;-77
2021/11/14 00:25:59;;;;;;;;;;;22.00;63.80;;;;;;693770;28;997;-83
2021/11/14 00:26:19;;;;;;;;;;;22.10;62.50;;;;;;690626;28;1337;-85
2021/11/14 00:26:40;;;;;;;;;;;22.00;62.80;;;;;;690970;28;1500;-81
2021/11/14 00:27:01;;;;;;;;;;;22.10;62.60;;;;;;691903;28;1334;-82
2021/11/14 00:27:22;;;;;;;;;;;22.00;62.80;;;;;;693799;28;918;-80
2021/11/14 00:27:43;;;;;;;;;;;22.00;62.80;;;;;;693842;28;814;-82
2021/11/14 00:28:04;;;;;;;;;;;22.00;61.60;;;;;;693838;28;862;-83
2021/11/14 00:28:24;;;;;;;;;;;22.10;62.80;;;;;;693281;28;1362;-82
2021/11/14 00:28:45;;;;;;;;;;;22.10;64.90;;;;;;693797;28;1030;-83
2021/11/14 00:29:06;;;;;;;;;;;22.10;66.60;;;;;;691877;28;1385;-82
2021/11/14 00:29:27;;;;;;;;;;;22.10;66.10;;;;;;693471;28;1300;-84
2021/11/14 00:29:49;;;;;;;;;;;22.10;65.80;;;;;;693864;28;817;-82
2021/11/14 00:30:10;;;;;;;;;;;22.10;66.30;;;;;;691115;28;1108;-84
2021/11/14 00:30:31;;;;;;;;;;;22.10;65.80;;;;;;690973;28;1220;-82
2021/11/14 00:30:52;;;;;;;;;;;22.10;66.50;;;;;;690550;28;993;-82
2021/11/14 00:31:14;;;;;;;;;;;22.10;65.50;;;;;;688762;28;779;-83
2021/11/14 00:31:35;;;;;;;;;;;22.10;66.60;;;;;;691084;28;764;-82
2021/11/14 00:31:56;;;;;;;;;;;22.10;66.10;;;;;;691642;28;850;-82
2021/11/14 00:32:17;;;;;;;;;;;22.10;65.50;;;;;;693843;28;802;-84
2021/11/14 00:32:38;;;;;;;;;;;22.10;65.60;;;;;;694023;28;802;-82
2021/11/14 00:32:59;;;;;;;;;;;22.10;66.30;;;;;;693995;28;767;-83
2021/11/14 00:33:21;;;;;;;;;;;22.10;66.20;;;;;;693608;28;1155;-83
2021/11/14 00:33:43;;;;;;;;;;;22.10;65.40;;;;;;693740;28;858;-83
2021/11/14 00:34:05;;;;;;;;;;;22.10;65.90;;;;;;693819;28;901;-83
2021/11/14 00:34:25;;;;;;;;;;;22.10;66.00;;;;;;693827;28;826;-82
2021/11/14 00:34:49;;;;;;;;;;;22.10;66.50;;;;;;693785;28;799;-80
2021/11/14 00:35:11;;;;;;;;;;;22.10;66.30;;;;;;694596;28;1428;-82
2021/11/14 00:35:32;;;;;;;;;;;22.10;66.10;;;;;;693995;28;1385;-82
2021/11/14 00:35:53;;;;;;;;;;;22.10;66.10;;;;;;694003;28;798;-82
2021/11/14 00:36:16;;;;;;;;;;;22.10;66.40;;;;;;693972;28;795;-87
2021/11/14 00:36:38;;;;;;;;;;;22.00;66.30;;;;;;693724;28;1144;-82
2021/11/14 00:36:59;;;;;;;;;;;22.10;65.90;;;;;;693811;28;802;-82
2021/11/14 00:37:19;;;;;;;;;;;22.10;65.70;;;;;;693645;28;830;-83
2021/11/14 00:37:40;;;;;;;;;;;22.10;66.30;;;;;;694002;28;747;-82
2021/11/14 00:38:01;;;;;;;;;;;22.10;65.20;;;;;;693898;28;846;-81
2021/11/14 00:38:22;;;;;;;;;;;22.10;66.30;;;;;;693443;28;1408;-80
2021/11/14 00:38:43;;;;;;;;;;;22.10;65.70;;;;;;691422;28;1510;-81
2021/11/14 00:39:05;;;;;;;;;;;22.00;65.60;;;;;;691013;28;1354;-82
2021/11/14 00:39:26;;;;;;;;;;;22.00;65.40;;;;;;693751;28;1432;-81
2021/11/14 00:39:47;;;;;;;;;;;22.00;65.40;;;;;;695399;28;1357;-83
2021/11/14 00:40:13;;;;;;;;;;;22.00;66.00;;;;;;693899;28;909;-83
2021/11/14 00:40:35;;;;;;;;;;;22.10;65.90;;;;;;694003;28;1265;-82
2021/11/14 00:40:56;;;;;;;;;;;22.00;65.30;;;;;;695655;28;1255;-82
2021/11/14 00:41:17;;;;;;;;;;;22.00;64.90;;;;;;694222;28;1353;-82
2021/11/14 00:41:38;;;;;;;;;;;22.00;65.20;;;;;;692566;28;787;-82
2021/11/14 00:41:58;;;;;;;;;;;22.00;65.70;;;;;;691330;28;850;-82
2021/11/14 00:42:19;;;;;;;;;;;22.00;65.10;;;;;;691256;28;897;-83
2021/11/14 00:42:40;;;;;;;;;;;22.00;65.40;;;;;;693646;28;1420;-82
2021/11/14 00:43:01;;;;;;;;;;;22.00;65.00;;;;;;693098;28;980;-82
2021/11/14 00:43:22;;;;;;;;;;;22.00;64.70;;;;;;691230;28;889;-83
2021/11/14 00:43:42;;;;;;;;;;;22.00;64.50;;;;;;691207;28;829;-83
2021/11/14 00:44:03;;;;;;;;;;;22.00;64.30;;;;;;691241;28;869;-81
2021/11/14 00:44:24;;;;;;;;;;;22.00;64.40;;;;;;691279;28;1071;-82
2021/11/14 00:44:45;;;;;;;;;;;22.00;64.80;;;;;;691309;28;947;-81
2021/11/14 00:45:06;;;;;;;;;;;22.00;64.90;;;;;;691339;28;1460;-82
2021/11/14 00:45:27;;;;;;;;;;;22.00;63.60;;;;;;693776;28;1241;-82
2021/11/14 00:45:48;;;;;;;;;;;22.00;63.40;;;;;;693865;28;1902;-83
2021/11/14 00:46:10;;;;;;;;;;;22.00;63.30;;;;;;693962;28;885;-82
2021/11/14 00:46:31;;;;;;;;;;;22.00;63.50;;;;;;694082;28;806;-82
2021/11/14 00:46:52;;;;;;;;;;;22.00;63.40;;;;;;694123;28;881;-82
2021/11/14 00:47:12;;;;;;;;;;;22.00;63.60;;;;;;695946;28;1473;-82
2021/11/14 00:47:33;;;;;;;;;;;22.00;63.10;;;;;;696435;28;1092;-83
2021/11/14 00:47:54;;;;;;;;;;;22.00;63.10;;;;;;696466;28;879;-83
2021/11/14 00:48:15;;;;;;;;;;;22.00;63.80;;;;;;696656;28;803;-83
2021/11/14 00:48:35;;;;;;;;;;;22.00;63.80;;;;;;696477;28;1095;-81
2021/11/14 00:48:56;;;;;;;;;;;22.00;63.50;;;;;;696219;28;838;-81
2021/11/14 00:49:17;;;;;;;;;;;22.00;63.70;;;;;;693637;28;925;-83
2021/11/14 00:49:38;;;;;;;;;;;22.00;63.30;;;;;;693841;28;857;-82
2021/11/14 00:49:59;;;;;;;;;;;22.00;63.20;;;;;;693636;28;771;-81
2021/11/14 00:50:20;;;;;;;;;;;22.00;63.40;;;;;;694179;28;933;-82
2021/11/14 00:50:44;;;;;;;;;;;22.00;63.10;;;;;;695690;28;874;-83
2021/11/14 00:51:04;;;;;;;;;;;22.00;62.90;;;;;;696437;28;1117;-82
2021/11/14 00:51:28;;;;;;;;;;;22.00;63.40;;;;;;693674;28;1372;-82
2021/11/14 00:51:49;;;;;;;;;;;22.00;63.00;;;;;;693816;28;912;-83
2021/11/14 00:52:10;;;;;;;;;;;21.90;62.60;;;;;;693690;28;1264;-82
2021/11/14 00:52:30;;;;;;;;;;;21.90;63.20;;;;;;692638;28;873;-82
2021/11/14 00:52:51;;;;;;;;;;;21.90;63.60;;;;;;690936;28;1293;-82
2021/11/14 00:53:12;;;;;;;;;;;22.00;64.00;;;;;;691780;28;866;-83
2021/11/14 00:53:33;;;;;;;;;;;21.90;63.60;;;;;;691049;28;1198;-83
2021/11/14 00:53:54;;;;;;;;;;;21.90;63.20;;;;;;691541;28;799;-82
2021/11/14 00:54:15;;;;;;;;;;;22.00;62.90;;;;;;693674;28;1015;-83
2021/11/14 00:54:35;;;;;;;;;;;21.90;63.00;;;;;;693697;28;862;-83
2021/11/14 00:54:56;;;;;;;;;;;22.00;63.20;;;;;;693796;28;1311;-82
2021/11/14 00:55:18;;;;;;;;;;;21.90;63.00;;;;;;693883;28;905;-82
2021/11/14 00:55:39;;;;;;;;;;;21.90;62.80;;;;;;693414;28;1652;-82
2021/11/14 00:55:59;;;;;;;;;;;22.00;62.90;;;;;;688383;28;874;-82
2021/11/14 00:56:20;;;;;;;;;;;21.90;62.80;;;;;;689266;28;1291;-82
2021/11/14 00:56:40;;;;;;;;;;;21.90;63.40;;;;;;688321;28;815;-82
2021/11/14 00:57:01;;;;;;;;;;;21.90;63.00;;;;;;688809;28;890;-82
2021/11/14 00:57:21;;;;;;;;;;;21.90;62.70;;;;;;690927;28;1354;-81
2021/11/14 00:57:42;;;;;;;;;;;21.90;63.20;;;;;;691180;28;878;-82
2021/11/14 00:58:03;;;;;;;;;;;21.90;63.10;;;;;;691329;28;910;-81
2021/11/14 00:58:25;;;;;;;;;;;21.90;63.20;;;;;;693923;28;854;-81
2021/11/14 00:58:46;;;;;;;;;;;21.90;63.80;;;;;;693946;28;846;-79
2021/11/14 00:59:06;;;;;;;;;;;21.90;63.60;;;;;;694086;28;806;-79
2021/11/14 00:59:27;;;;;;;;;;;21.90;63.30;;;;;;694439;28;830;-80
2021/11/14 00:59:47;;;;;;;;;;;21.90;63.60;;;;;;694549;28;561;-82
2021/11/14 01:00:11;;;;;;;;;;;21.90;63.20;;;;;;694580;28;795;-82
2021/11/14 01:00:33;;;;;;;;;;;21.90;63.30;;;;;;694235;28;1080;-83
2021/11/14 01:00:54;;;;;;;;;;;21.90;63.10;;;;;;694155;28;1004;-83
2021/11/14 01:01:14;;;;;;;;;;;21.90;63.20;;;;;;694190;28;901;-83
2021/11/14 01:01:35;;;;;;;;;;;21.90;63.90;;;;;;694190;28;862;-82
2021/11/14 01:01:56;;;;;;;;;;;21.90;64.00;;;;;;693844;28;1279;-82
2021/11/14 01:02:16;;;;;;;;;;;21.90;64.30;;;;;;691697;28;1110;-83
2021/11/14 01:02:38;;;;;;;;;;;21.90;65.80;;;;;;694006;28;782;-84
2021/11/14 01:02:59;;;;;;;;;;;21.90;65.90;;;;;;694404;28;893;-82
2021/11/14 01:03:20;;;;;;;;;;;22.00;64.90;;;;;;694293;28;870;-83
2021/11/14 01:03:40;;;;;;;;;;;22.00;64.70;;;;;;693784;28;984;-83
2021/11/14 01:04:01;;;;;;;;;;;22.00;64.70;;;;;;694451;28;882;-82
2021/11/14 01:04:21;;;;;;;;;;;22.00;64.60;;;;;;694408;28;882;-83
2021/11/14 01:04:42;;;;;;;;;;;22.00;64.40;;;;;;694360;28;826;-83
2021/11/14 01:05:04;;;;;;;;;;;22.00;64.50;;;;;;694476;28;799;-82
2021/11/14 01:05:25;;;;;;;;;;;22.00;64.50;;;;;;694487;28;866;-83
2021/11/14 01:05:46;;;;;;;;;;;22.00;64.50;;;;;;694411;28;1956;-82
2021/11/14 01:06:06;;;;;;;;;;;22.00;64.30;;;;;;694124;28;1204;-84
2021/11/14 01:06:27;;;;;;;;;;;22.00;64.40;;;;;;694163;28;889;-85
2021/11/14 01:06:47;;;;;;;;;;;22.00;64.10;;;;;;694066;28;1322;-83
2021/11/14 01:07:11;;;;;;;;;;;22.00;64.50;;;;;;694251;28;874;-83
2021/11/14 01:07:31;;;;;;;;;;;22.00;64.10;;;;;;694140;28;1323;-83
2021/11/14 01:07:52;;;;;;;;;;;22.00;64.10;;;;;;694113;28;1099;-83
2021/11/14 01:08:12;;;;;;;;;;;22.00;63.90;;;;;;694231;28;834;-83
2021/11/14 01:08:33;;;;;;;;;;;22.00;63.90;;;;;;693868;28;826;-83
2021/11/14 01:08:53;;;;;;;;;;;22.00;64.30;;;;;;694163;28;814;-81
2021/11/14 01:09:14;;;;;;;;;;;22.00;64.30;;;;;;694304;28;945;-81
2021/11/14 01:09:36;;;;;;;;;;;22.00;64.30;;;;;;694336;28;837;-81
2021/11/14 01:09:57;;;;;;;;;;;22.00;63.90;;;;;;694512;28;787;-80
2021/11/14 01:10:20;;;;;;;;;;;22.00;64.30;;;;;;694354;28;795;-84
2021/11/14 01:10:44;;;;;;;;;;;22.00;64.20;;;;;;691408;28;1230;-82
2021/11/14 01:11:06;;;;;;;;;;;22.00;63.60;;;;;;693870;28;1516;-81
2021/11/14 01:11:27;;;;;;;;;;;22.00;64.00;;;;;;693144;28;1602;-83
2021/11/14 01:11:47;;;;;;;;;;;22.00;63.90;;;;;;691387;28;814;-82
2021/11/14 01:12:08;;;;;;;;;;;22.00;63.90;;;;;;691541;28;918;-83
2021/11/14 01:12:29;;;;;;;;;;;22.00;63.80;;;;;;691644;28;957;-82
2021/11/14 01:12:50;;;;;;;;;;;22.00;63.90;;;;;;692121;28;1230;-82
2021/11/14 01:13:10;;;;;;;;;;;22.00;64.00;;;;;;694454;28;952;-82
2021/11/14 01:13:32;;;;;;;;;;;22.00;63.80;;;;;;694504;28;965;-83
2021/11/14 01:13:53;;;;;;;;;;;22.00;63.80;;;;;;694471;28;810;-83
2021/11/14 01:14:13;;;;;;;;;;;22.00;63.80;;;;;;696458;28;1390;-83
2021/11/14 01:14:35;;;;;;;;;;;22.00;64.10;;;;;;697009;28;747;-82
2021/11/14 01:14:56;;;;;;;;;;;22.00;64.20;;;;;;697035;28;803;-82
2021/11/14 01:15:17;;;;;;;;;;;22.00;64.00;;;;;;696894;28;873;-82
2021/11/14 01:15:38;;;;;;;;;;;22.00;64.10;;;;;;697037;28;901;-83
2021/11/14 01:16:00;;;;;;;;;;;22.00;63.90;;;;;;696540;28;945;-82
2021/11/14 01:16:22;;;;;;;;;;;22.00;63.90;;;;;;694440;28;818;-83
2021/11/14 01:16:42;;;;;;;;;;;22.00;64.00;;;;;;693524;28;1128;-83
2021/11/14 01:17:03;;;;;;;;;;;22.00;64.00;;;;;;692455;28;1270;-85
2021/11/14 01:17:24;;;;;;;;;;;22.00;63.80;;;;;;691574;28;771;-83
2021/11/14 01:17:45;;;;;;;;;;;21.90;64.00;;;;;;691662;28;842;-83
2021/11/14 01:18:05;;;;;;;;;;;22.00;63.90;;;;;;691559;28;929;-83
2021/11/14 01:18:26;;;;;;;;;;;22.00;63.80;;;;;;691890;28;837;-81
2021/11/14 01:18:47;;;;;;;;;;;22.00;63.70;;;;;;694470;28;932;-83
2021/11/14 01:19:07;;;;;;;;;;;22.00;63.60;;;;;;694582;28;846;-83
2021/11/14 01:19:28;;;;;;;;;;;22.00;63.80;;;;;;694364;28;807;-82
2021/11/14 01:19:48;;;;;;;;;;;22.00;63.50;;;;;;694146;28;1214;-83
2021/11/14 01:20:14;;;;;;;;;;;22.00;63.90;;;;;;693738;28;940;-83
2021/11/14 01:20:36;;;;;;;;;;;22.00;63.90;;;;;;694263;28;752;-84
2021/11/14 01:21:00;;;;;;;;;;;22.00;63.70;;;;;;694327;28;775;-83
2021/11/14 01:21:21;;;;;;;;;;;22.00;63.60;;;;;;690888;28;1077;-82
2021/11/14 01:21:46;;;;;;;;;;;22.00;63.70;;;;;;691656;28;862;-84
2021/11/14 01:22:06;;;;;;;;;;;22.00;63.70;;;;;;694150;28;1238;-82
2021/11/14 01:22:27;;;;;;;;;;;22.00;63.80;;;;;;694663;28;1008;-85
2021/11/14 01:22:48;;;;;;;;;;;21.90;63.80;;;;;;696499;28;1220;-85
2021/11/14 01:23:10;;;;;;;;;;;22.00;63.60;;;;;;697014;28;806;-84
2021/11/14 01:23:30;;;;;;;;;;;22.00;63.60;;;;;;696972;28;905;-83
2021/11/14 01:23:53;;;;;;;;;;;22.00;63.60;;;;;;696981;28;931;-81
2021/11/14 01:24:15;;;;;;;;;;;22.00;63.60;;;;;;697047;28;881;-82
2021/11/14 01:24:36;;;;;;;;;;;22.00;63.60;;;;;;695803;28;954;-82
2021/11/14 01:24:57;;;;;;;;;;;22.00;63.50;;;;;;692482;28;1067;-83
2021/11/14 01:25:18;;;;;;;;;;;21.90;63.40;;;;;;691685;28;870;-82
2021/11/14 01:25:40;;;;;;;;;;;22.00;63.50;;;;;;691460;28;1906;-83
2021/11/14 01:26:01;;;;;;;;;;;22.00;63.30;;;;;;691801;28;811;-82
2021/11/14 01:26:24;;;;;;;;;;;22.00;63.40;;;;;;691560;28;1083;-82
2021/11/14 01:26:44;;;;;;;;;;;22.00;63.50;;;;;;691720;28;795;-83
2021/11/14 01:27:05;;;;;;;;;;;22.00;63.40;;;;;;691771;28;941;-82
2021/11/14 01:27:26;;;;;;;;;;;22.00;63.40;;;;;;691705;28;823;-83
2021/11/14 01:27:48;;;;;;;;;;;22.00;64.50;;;;;;691682;28;854;-84
2021/11/14 01:28:08;;;;;;;;;;;22.00;63.50;;;;;;691733;28;1055;-84
2021/11/14 01:28:29;;;;;;;;;;;22.00;63.30;;;;;;691738;28;822;-83
2021/11/14 01:28:49;;;;;;;;;;;22.00;63.40;;;;;;691725;28;850;-83
2021/11/14 01:29:10;;;;;;;;;;;22.00;63.40;;;;;;691632;28;1289;-83
2021/11/14 01:29:30;;;;;;;;;;;22.00;63.50;;;;;;691329;28;924;-83
2021/11/14 01:29:51;;;;;;;;;;;22.00;63.50;;;;;;688044;28;1059;-83
2021/11/14 01:30:14;;;;;;;;;;;22.00;63.40;;;;;;688646;28;902;-83
2021/11/14 01:30:36;;;;;;;;;;;22.00;63.40;;;;;;688410;28;866;-81
2021/11/14 01:30:57;;;;;;;;;;;22.00;63.30;;;;;;688908;28;803;-84
2021/11/14 01:31:18;;;;;;;;;;;22.00;63.30;;;;;;689768;28;843;-82
2021/11/14 01:31:38;;;;;;;;;;;22.00;63.30;;;;;;691621;28;888;-83
2021/11/14 01:31:59;;;;;;;;;;;22.00;63.20;;;;;;691498;28;811;-82
2021/11/14 01:32:20;;;;;;;;;;;21.90;63.10;;;;;;694047;28;791;-81
2021/11/14 01:32:40;;;;;;;;;;;22.00;63.20;;;;;;694357;28;857;-82
2021/11/14 01:33:03;;;;;;;;;;;22.00;63.30;;;;;;694252;28;905;-82
2021/11/14 01:33:25;;;;;;;;;;;22.00;63.20;;;;;;694255;28;764;-81
2021/11/14 01:33:45;;;;;;;;;;;22.00;63.20;;;;;;694277;28;1421;-82
2021/11/14 01:34:06;;;;;;;;;;;22.00;63.20;;;;;;693450;28;901;-81
2021/11/14 01:34:27;;;;;;;;;;;22.00;63.30;;;;;;691911;28;806;-81
2021/11/14 01:34:47;;;;;;;;;;;22.00;63.20;;;;;;691401;28;1380;-82
2021/11/14 01:35:09;;;;;;;;;;;22.00;63.10;;;;;;691524;28;786;-83
2021/11/14 01:35:30;;;;;;;;;;;22.00;63.00;;;;;;691387;28;1222;-83
2021/11/14 01:35:53;;;;;;;;;;;22.00;63.00;;;;;;688686;28;1163;-82
2021/11/14 01:36:13;;;;;;;;;;;21.90;63.00;;;;;;688705;28;1302;-83
2021/11/14 01:36:36;;;;;;;;;;;21.90;63.00;;;;;;689510;28;924;-81
2021/11/14 01:36:56;;;;;;;;;;;22.00;62.90;;;;;;691603;28;826;-82
2021/11/14 01:37:17;;;;;;;;;;;22.00;63.00;;;;;;691312;28;886;-82
2021/11/14 01:37:38;;;;;;;;;;;21.90;62.80;;;;;;691414;28;1354;-83
2021/11/14 01:37:59;;;;;;;;;;;22.00;62.90;;;;;;691321;28;1210;-82
2021/11/14 01:38:20;;;;;;;;;;;22.00;63.00;;;;;;691441;28;842;-82
2021/11/14 01:38:40;;;;;;;;;;;22.00;62.90;;;;;;691207;28;835;-81
2021/11/14 01:39:03;;;;;;;;;;;22.00;63.00;;;;;;691508;28;890;-82
2021/11/14 01:39:24;;;;;;;;;;;21.90;62.80;;;;;;693087;28;1507;-82
2021/11/14 01:39:44;;;;;;;;;;;22.00;62.80;;;;;;693520;28;1326;-82
2021/11/14 01:40:05;;;;;;;;;;;22.00;62.80;;;;;;691635;28;886;-81
2021/11/14 01:40:29;;;;;;;;;;;21.90;62.80;;;;;;691656;28;802;-82
2021/11/14 01:40:53;;;;;;;;;;;21.90;62.70;;;;;;691336;28;913;-82
2021/11/14 01:41:13;;;;;;;;;;;22.00;62.70;;;;;;691454;28;831;-82
2021/11/14 01:41:35;;;;;;;;;;;21.90;62.60;;;;;;691490;28;826;-82
2021/11/14 01:41:55;;;;;;;;;;;21.90;62.70;;;;;;691445;28;968;-82
2021/11/14 01:42:16;;;;;;;;;;;21.90;62.70;;;;;;691231;28;1262;-83
2021/11/14 01:42:36;;;;;;;;;;;21.90;62.70;;;;;;692243;28;799;-82
2021/11/14 01:42:57;;;;;;;;;;;22.00;62.70;;;;;;694171;28;528;-82
2021/11/14 01:43:20;;;;;;;;;;;21.90;62.70;;;;;;693627;28;1353;-82
2021/11/14 01:43:42;;;;;;;;;;;21.90;62.70;;;;;;694229;28;877;-83
2021/11/14 01:44:04;;;;;;;;;;;21.90;62.70;;;;;;694208;28;831;-82
2021/11/14 01:44:24;;;;;;;;;;;21.90;62.60;;;;;;694075;28;902;-81
2021/11/14 01:44:45;;;;;;;;;;;21.90;62.60;;;;;;694140;28;878;-82
2021/11/14 01:45:06;;;;;;;;;;;21.90;62.50;;;;;;691035;28;1207;-83
2021/11/14 01:45:27;;;;;;;;;;;21.90;62.60;;;;;;691343;28;1306;-82
2021/11/14 01:45:48;;;;;;;;;;;21.90;62.50;;;;;;691383;28;1977;-83
2021/11/14 01:46:08;;;;;;;;;;;21.90;62.50;;;;;;691484;28;787;-83
2021/11/14 01:46:29;;;;;;;;;;;21.90;62.50;;;;;;691399;28;826;-81
2021/11/14 01:46:51;;;;;;;;;;;21.90;62.40;;;;;;691532;28;961;-82
2021/11/14 01:47:11;;;;;;;;;;;21.90;62.40;;;;;;691842;28;869;-82
2021/11/14 01:47:32;;;;;;;;;;;21.90;62.30;;;;;;691649;28;854;-81
2021/11/14 01:47:53;;;;;;;;;;;21.90;62.30;;;;;;691377;28;1196;-83
2021/11/14 01:48:14;;;;;;;;;;;21.90;62.30;;;;;;691362;28;1393;-82
2021/11/14 01:48:35;;;;;;;;;;;21.90;62.40;;;;;;691472;28;822;-81
2021/11/14 01:48:55;;;;;;;;;;;21.90;62.40;;;;;;691479;28;795;-82
2021/11/14 01:49:16;;;;;;;;;;;21.90;62.30;;;;;;691496;28;886;-82
2021/11/14 01:49:36;;;;;;;;;;;21.90;62.30;;;;;;691328;28;1393;-81
2021/11/14 01:49:57;;;;;;;;;;;21.90;62.30;;;;;;691545;28;870;-83
2021/11/14 01:50:19;;;;;;;;;;;21.90;62.20;;;;;;691477;28;838;-81
2021/11/14 01:50:40;;;;;;;;;;;21.90;62.30;;;;;;691436;28;894;-82
2021/11/14 01:51:01;;;;;;;;;;;21.90;62.30;;;;;;691462;28;1173;-82
2021/11/14 01:51:22;;;;;;;;;;;21.80;62.20;;;;;;691453;28;894;-83
2021/11/14 01:51:43;;;;;;;;;;;21.90;62.20;;;;;;691353;28;783;-84
2021/11/14 01:52:04;;;;;;;;;;;21.90;62.20;;;;;;691408;28;902;-84
2021/11/14 01:52:26;;;;;;;;;;;21.90;62.20;;;;;;691447;28;843;-83
2021/11/14 01:52:47;;;;;;;;;;;21.80;62.20;;;;;;691504;28;938;-83
2021/11/14 01:53:08;;;;;;;;;;;21.80;62.10;;;;;;691588;28;854;-83
2021/11/14 01:53:30;;;;;;;;;;;21.90;62.10;;;;;;691671;28;858;-83
2021/11/14 01:53:51;;;;;;;;;;;21.90;62.20;;;;;;691679;28;1393;-82
2021/11/14 01:54:11;;;;;;;;;;;21.90;62.10;;;;;;691549;28;1377;-83
2021/11/14 01:54:32;;;;;;;;;;;21.90;62.20;;;;;;688552;28;952;-84
2021/11/14 01:54:53;;;;;;;;;;;21.80;62.10;;;;;;688722;28;890;-84
2021/11/14 01:55:16;;;;;;;;;;;21.80;62.00;;;;;;688726;28;799;-83
2021/11/14 01:55:42;;;;;;;;;;;21.80;62.00;;;;;;688692;28;794;-84
2021/11/14 01:56:03;;;;;;;;;;;21.80;62.00;;;;;;688827;28;863;-83
2021/11/14 01:56:24;;;;;;;;;;;21.80;62.00;;;;;;690023;28;962;-83
2021/11/14 01:56:46;;;;;;;;;;;21.80;62.00;;;;;;688587;28;1168;-83
2021/11/14 01:57:07;;;;;;;;;;;21.80;62.00;;;;;;691247;28;1084;-85
2021/11/14 01:57:28;;;;;;;;;;;21.80;62.00;;;;;;691360;28;926;-83
2021/11/14 01:57:49;;;;;;;;;;;21.80;62.00;;;;;;691278;28;1402;-82
2021/11/14 01:58:14;;;;;;;;;;;21.80;62.00;;;;;;688511;28;1189;-83
2021/11/14 01:58:35;;;;;;;;;;;21.80;61.90;;;;;;687494;28;788;-83
2021/11/14 01:58:56;;;;;;;;;;;21.80;61.90;;;;;;686120;28;799;-84
2021/11/14 01:59:17;;;;;;;;;;;21.80;61.90;;;;;;685844;28;1217;-82
2021/11/14 01:59:37;;;;;;;;;;;21.80;61.90;;;;;;686116;28;879;-83
2021/11/14 01:59:58;;;;;;;;;;;21.80;61.90;;;;;;687088;28;867;-83
2021/11/14 02:00:24;;;;;;;;;;;21.80;61.90;;;;;;690739;28;791;-83
2021/11/14 02:00:56;;;;;;;;;;;21.80;61.80;;;;;;694138;28;798;-83
2021/11/14 02:01:21;;;;;;;;;;;21.80;61.90;;;;;;691223;28;1325;-83
2021/11/14 02:01:42;;;;;;;;;;;21.80;61.80;;;;;;691475;28;810;-83
2021/11/14 02:02:03;;;;;;;;;;;21.80;61.80;;;;;;691421;28;980;-83
2021/11/14 02:02:23;;;;;;;;;;;21.80;61.80;;;;;;691506;28;870;-82
2021/11/14 02:02:44;;;;;;;;;;;21.80;61.80;;;;;;691271;28;1437;-81
2021/11/14 02:03:05;;;;;;;;;;;21.80;61.80;;;;;;690083;28;1399;-81
2021/11/14 02:03:27;;;;;;;;;;;21.80;61.80;;;;;;691301;28;837;-82
2021/11/14 02:03:49;;;;;;;;;;;21.80;61.80;;;;;;691293;28;900;-84
2021/11/14 02:04:10;;;;;;;;;;;21.80;61.80;;;;;;691520;28;794;-83
2021/11/14 02:04:31;;;;;;;;;;;21.80;61.90;;;;;;691420;28;866;-83
2021/11/14 02:04:52;;;;;;;;;;;21.80;61.80;;;;;;692136;28;944;-83
2021/11/14 02:05:12;;;;;;;;;;;21.80;61.80;;;;;;694097;28;787;-82
2021/11/14 02:05:34;;;;;;;;;;;21.80;61.80;;;;;;694067;28;1234;-83
2021/11/14 02:05:54;;;;;;;;;;;21.80;61.70;;;;;;694257;28;929;-83
2021/11/14 02:06:15;;;;;;;;;;;21.80;61.80;;;;;;694274;28;822;-83
2021/11/14 02:06:36;;;;;;;;;;;21.80;61.80;;;;;;693643;28;1380;-83
2021/11/14 02:06:57;;;;;;;;;;;21.80;61.80;;;;;;694422;28;857;-82
2021/11/14 02:07:18;;;;;;;;;;;21.80;61.80;;;;;;694004;28;893;-84
2021/11/14 02:07:39;;;;;;;;;;;21.80;61.80;;;;;;694059;28;846;-83
2021/11/14 02:08:01;;;;;;;;;;;21.80;61.80;;;;;;694178;28;940;-83
2021/11/14 02:08:21;;;;;;;;;;;21.80;61.70;;;;;;694103;28;1171;-83